sensor_id;sensor_type;location;lat;lon;timestamp;temperature;humidity
54898;DHT22;40800;52.704;6.398;2023-06-26T00:02:18;22.90;13.10
54898;DHT22;40800;52.704;6.398;2023-06-26T00:04:44;22.90;20.00
54898;DHT22;40800;52.704;6.398;2023-06-26T00:07:10;22.90;23.60
54898;DHT22;40800;52.704;6.398;2023-06-26T00:09:36;22.90;1.00
54898;DHT22;40800;52.704;6.398;2023-06-26T00:12:02;22.90;1.00
54898;DHT22;40800;52.704;6.398;2023-06-26T00:14:28;22.90;99.90
54898;DHT22;40800;52.704;6.398;2023-06-26T00:16:53;22.80;99.90
54898;DHT22;40800;52.704;6.398;2023-06-26T00:19:19;22.80;1.00
54898;DHT22;40800;52.704;6.398;2023-06-26T00:21:44;22.80;68.80
54898;DHT22;40800;52.704;6.398;2023-06-26T00:24:16;22.70;1.00
54898;DHT22;40800;52.704;6.398;2023-06-26T00:26:41;22.70;1.00
54898;DHT22;40800;52.704;6.398;2023-06-26T00:29:07;22.70;99.90
54898;DHT22;40800;52.704;6.398;2023-06-26T00:31:33;22.50;77.40
54898;DHT22;40800;52.704;6.398;2023-06-26T00:34:00;22.50;99.90
54898;DHT22;40800;52.704;6.398;2023-06-26T00:36:26;22.50;1.00
54898;DHT22;40800;52.704;6.398;2023-06-26T00:38:52;22.50;66.30
54898;DHT22;40800;52.704;6.398;2023-06-26T00:41:18;22.40;1.00
54898;DHT22;40800;52.704;6.398;2023-06-26T00:43:44;22.40;1.00
54898;DHT22;40800;52.704;6.398;2023-06-26T00:46:12;22.50;99.90
54898;DHT22;40800;52.704;6.398;2023-06-26T00:48:39;22.50;99.90
54898;DHT22;40800;52.704;6.398;2023-06-26T00:51:06;22.40;99.90
54898;DHT22;40800;52.704;6.398;2023-06-26T00:53:32;22.40;99.90
54898;DHT22;40800;52.704;6.398;2023-06-26T00:55:59;22.30;99.90
54898;DHT22;40800;52.704;6.398;2023-06-26T00:58:25;22.20;99.90
54898;DHT22;40800;52.704;6.398;2023-06-26T01:00:51;22.00;99.90
54898;DHT22;40800;52.704;6.398;2023-06-26T01:03:18;21.90;99.90
54898;DHT22;40800;52.704;6.398;2023-06-26T01:05:44;21.90;43.90
54898;DHT22;40800;52.704;6.398;2023-06-26T01:08:12;21.80;1.00
54898;DHT22;40800;52.704;6.398;2023-06-26T01:10:38;21.80;99.90
54898;DHT22;40800;52.704;6.398;2023-06-26T01:13:04;21.70;17.40
54898;DHT22;40800;52.704;6.398;2023-06-26T01:15:30;21.70;99.90
54898;DHT22;40800;52.704;6.398;2023-06-26T01:17:57;21.60;99.90
54898;DHT22;40800;52.704;6.398;2023-06-26T01:20:26;21.60;99.90
54898;DHT22;40800;52.704;6.398;2023-06-26T01:28:34;21.60;1.00
54898;DHT22;40800;52.704;6.398;2023-06-26T01:31:02;21.60;99.90
54898;DHT22;40800;52.704;6.398;2023-06-26T01:33:27;21.60;99.90
54898;DHT22;40800;52.704;6.398;2023-06-26T01:35:53;21.50;99.90
54898;DHT22;40800;52.704;6.398;2023-06-26T01:38:20;21.50;99.90
54898;DHT22;40800;52.704;6.398;2023-06-26T01:40:49;21.50;81.90
54898;DHT22;40800;52.704;6.398;2023-06-26T01:45:58;21.50;99.90
54898;DHT22;40800;52.704;6.398;2023-06-26T01:48:31;21.60;99.90
54898;DHT22;40800;52.704;6.398;2023-06-26T01:50:59;21.50;1.00
54898;DHT22;40800;52.704;6.398;2023-06-26T01:53:29;21.40;99.90
54898;DHT22;40800;52.704;6.398;2023-06-26T01:56:06;21.40;99.90
54898;DHT22;40800;52.704;6.398;2023-06-26T01:58:33;21.30;93.40
54898;DHT22;40800;52.704;6.398;2023-06-26T02:00:59;21.30;99.90
54898;DHT22;40800;52.704;6.398;2023-06-26T02:03:25;21.20;17.40
54898;DHT22;40800;52.704;6.398;2023-06-26T02:05:51;21.10;99.90
54898;DHT22;40800;52.704;6.398;2023-06-26T02:08:16;21.00;85.50
54898;DHT22;40800;52.704;6.398;2023-06-26T02:10:42;20.90;1.00
54898;DHT22;40800;52.704;6.398;2023-06-26T02:13:07;20.80;1.00
54898;DHT22;40800;52.704;6.398;2023-06-26T02:15:33;20.60;99.90
54898;DHT22;40800;52.704;6.398;2023-06-26T02:17:59;20.50;99.90
54898;DHT22;40800;52.704;6.398;2023-06-26T02:20:24;20.50;99.90
54898;DHT22;40800;52.704;6.398;2023-06-26T02:22:50;20.50;99.90
54898;DHT22;40800;52.704;6.398;2023-06-26T02:25:17;20.40;99.90
54898;DHT22;40800;52.704;6.398;2023-06-26T02:27:42;20.40;99.90
54898;DHT22;40800;52.704;6.398;2023-06-26T02:30:08;20.40;99.90
54898;DHT22;40800;52.704;6.398;2023-06-26T02:32:34;20.40;99.90
54898;DHT22;40800;52.704;6.398;2023-06-26T02:35:00;20.40;99.90
54898;DHT22;40800;52.704;6.398;2023-06-26T02:37:26;20.40;99.90
54898;DHT22;40800;52.704;6.398;2023-06-26T02:39:52;20.30;99.90
54898;DHT22;40800;52.704;6.398;2023-06-26T02:42:17;20.30;99.90
54898;DHT22;40800;52.704;6.398;2023-06-26T02:44:43;20.30;99.90
54898;DHT22;40800;52.704;6.398;2023-06-26T02:47:08;20.20;99.90
54898;DHT22;40800;52.704;6.398;2023-06-26T02:49:34;20.10;99.90
54898;DHT22;40800;52.704;6.398;2023-06-26T02:52:00;20.10;99.90
54898;DHT22;40800;52.704;6.398;2023-06-26T02:54:25;20.00;99.90
54898;DHT22;40800;52.704;6.398;2023-06-26T02:56:51;20.00;99.90
54898;DHT22;40800;52.704;6.398;2023-06-26T02:59:17;20.00;99.90
54898;DHT22;40800;52.704;6.398;2023-06-26T03:01:43;20.00;99.90
54898;DHT22;40800;52.704;6.398;2023-06-26T03:04:08;19.90;99.90
54898;DHT22;40800;52.704;6.398;2023-06-26T03:06:35;20.00;99.90
54898;DHT22;40800;52.704;6.398;2023-06-26T03:09:01;19.90;99.90
54898;DHT22;40800;52.704;6.398;2023-06-26T03:11:28;20.00;99.90
54898;DHT22;40800;52.704;6.398;2023-06-26T03:13:53;19.90;99.90
54898;DHT22;40800;52.704;6.398;2023-06-26T03:16:19;19.90;99.90
54898;DHT22;40800;52.704;6.398;2023-06-26T03:18:45;19.90;99.90
54898;DHT22;40800;52.704;6.398;2023-06-26T03:21:10;20.00;99.90
54898;DHT22;40800;52.704;6.398;2023-06-26T03:23:36;20.00;99.90
54898;DHT22;40800;52.704;6.398;2023-06-26T03:26:01;20.00;99.90
54898;DHT22;40800;52.704;6.398;2023-06-26T03:28:27;20.00;99.90
54898;DHT22;40800;52.704;6.398;2023-06-26T03:30:53;19.90;99.90
54898;DHT22;40800;52.704;6.398;2023-06-26T03:33:18;20.00;99.90
54898;DHT22;40800;52.704;6.398;2023-06-26T03:35:44;20.00;99.90
54898;DHT22;40800;52.704;6.398;2023-06-26T03:38:10;20.00;99.90
54898;DHT22;40800;52.704;6.398;2023-06-26T03:40:35;20.10;99.90
54898;DHT22;40800;52.704;6.398;2023-06-26T03:43:01;20.20;99.90
54898;DHT22;40800;52.704;6.398;2023-06-26T03:45:26;20.20;99.90
54898;DHT22;40800;52.704;6.398;2023-06-26T03:47:52;20.30;99.90
54898;DHT22;40800;52.704;6.398;2023-06-26T03:50:18;20.30;99.90
54898;DHT22;40800;52.704;6.398;2023-06-26T03:52:44;20.40;99.90
54898;DHT22;40800;52.704;6.398;2023-06-26T03:55:10;20.40;99.90
54898;DHT22;40800;52.704;6.398;2023-06-26T03:57:35;20.40;99.90
54898;DHT22;40800;52.704;6.398;2023-06-26T04:00:02;20.50;99.90
54898;DHT22;40800;52.704;6.398;2023-06-26T04:02:34;20.50;99.90
54898;DHT22;40800;52.704;6.398;2023-06-26T04:04:59;20.50;99.90
54898;DHT22;40800;52.704;6.398;2023-06-26T04:07:25;20.50;99.90
54898;DHT22;40800;52.704;6.398;2023-06-26T04:09:51;20.50;99.90
54898;DHT22;40800;52.704;6.398;2023-06-26T04:12:17;20.50;99.90
54898;DHT22;40800;52.704;6.398;2023-06-26T04:14:42;20.40;99.90
54898;DHT22;40800;52.704;6.398;2023-06-26T04:17:08;20.40;99.90
54898;DHT22;40800;52.704;6.398;2023-06-26T04:19:33;20.40;99.90
54898;DHT22;40800;52.704;6.398;2023-06-26T04:22:01;20.40;99.90
54898;DHT22;40800;52.704;6.398;2023-06-26T04:24:26;20.50;99.90
54898;DHT22;40800;52.704;6.398;2023-06-26T04:26:52;20.50;99.90
54898;DHT22;40800;52.704;6.398;2023-06-26T04:29:18;20.50;99.90
54898;DHT22;40800;52.704;6.398;2023-06-26T04:31:43;20.50;99.90
54898;DHT22;40800;52.704;6.398;2023-06-26T04:34:12;20.50;99.90
54898;DHT22;40800;52.704;6.398;2023-06-26T04:36:38;20.40;99.90
54898;DHT22;40800;52.704;6.398;2023-06-26T04:39:04;20.50;99.90
54898;DHT22;40800;52.704;6.398;2023-06-26T04:41:30;20.50;99.90
54898;DHT22;40800;52.704;6.398;2023-06-26T04:43:55;20.60;99.90
54898;DHT22;40800;52.704;6.398;2023-06-26T04:46:21;20.60;99.90
54898;DHT22;40800;52.704;6.398;2023-06-26T04:48:46;20.60;99.90
54898;DHT22;40800;52.704;6.398;2023-06-26T04:51:12;20.60;99.90
54898;DHT22;40800;52.704;6.398;2023-06-26T04:53:38;20.60;99.90
54898;DHT22;40800;52.704;6.398;2023-06-26T04:56:03;20.60;99.90
54898;DHT22;40800;52.704;6.398;2023-06-26T04:58:29;20.60;99.90
54898;DHT22;40800;52.704;6.398;2023-06-26T05:00:55;20.60;99.90
54898;DHT22;40800;52.704;6.398;2023-06-26T05:03:21;20.50;99.90
54898;DHT22;40800;52.704;6.398;2023-06-26T05:05:47;20.50;99.90
54898;DHT22;40800;52.704;6.398;2023-06-26T05:10:39;20.40;99.90
54898;DHT22;40800;52.704;6.398;2023-06-26T05:13:05;20.30;99.90
54898;DHT22;40800;52.704;6.398;2023-06-26T05:15:30;20.40;99.90
54898;DHT22;40800;52.704;6.398;2023-06-26T05:17:56;20.30;99.90
54898;DHT22;40800;52.704;6.398;2023-06-26T05:20:22;20.30;99.90
54898;DHT22;40800;52.704;6.398;2023-06-26T05:22:47;20.30;99.90
54898;DHT22;40800;52.704;6.398;2023-06-26T05:25:13;20.30;99.90
54898;DHT22;40800;52.704;6.398;2023-06-26T05:27:40;20.30;99.90
54898;DHT22;40800;52.704;6.398;2023-06-26T05:30:06;20.20;99.90
54898;DHT22;40800;52.704;6.398;2023-06-26T05:32:33;20.20;99.90
54898;DHT22;40800;52.704;6.398;2023-06-26T05:35:02;20.00;99.90
54898;DHT22;40800;52.704;6.398;2023-06-26T05:37:29;20.00;99.90
54898;DHT22;40800;52.704;6.398;2023-06-26T05:39:56;20.00;99.90
54898;DHT22;40800;52.704;6.398;2023-06-26T05:42:22;20.10;99.90
54898;DHT22;40800;52.704;6.398;2023-06-26T05:44:47;20.10;99.90
54898;DHT22;40800;52.704;6.398;2023-06-26T05:47:13;20.20;99.90
54898;DHT22;40800;52.704;6.398;2023-06-26T05:49:39;20.20;99.90
54898;DHT22;40800;52.704;6.398;2023-06-26T05:52:05;20.30;99.90
54898;DHT22;40800;52.704;6.398;2023-06-26T05:54:31;20.30;99.90
54898;DHT22;40800;52.704;6.398;2023-06-26T05:56:57;20.30;99.90
54898;DHT22;40800;52.704;6.398;2023-06-26T05:59:27;20.30;99.90
54898;DHT22;40800;52.704;6.398;2023-06-26T06:01:53;20.20;99.90
54898;DHT22;40800;52.704;6.398;2023-06-26T06:04:18;20.20;99.90
54898;DHT22;40800;52.704;6.398;2023-06-26T06:06:44;20.20;99.90
54898;DHT22;40800;52.704;6.398;2023-06-26T06:09:09;20.20;99.90
54898;DHT22;40800;52.704;6.398;2023-06-26T06:11:35;20.30;99.90
54898;DHT22;40800;52.704;6.398;2023-06-26T06:14:01;20.10;99.90
54898;DHT22;40800;52.704;6.398;2023-06-26T06:16:26;20.10;99.90
54898;DHT22;40800;52.704;6.398;2023-06-26T06:18:55;20.10;99.90
54898;DHT22;40800;52.704;6.398;2023-06-26T06:21:20;20.10;99.90
54898;DHT22;40800;52.704;6.398;2023-06-26T06:23:46;20.20;99.90
54898;DHT22;40800;52.704;6.398;2023-06-26T06:26:12;20.30;99.90
54898;DHT22;40800;52.704;6.398;2023-06-26T06:28:38;20.40;99.90
54898;DHT22;40800;52.704;6.398;2023-06-26T06:31:04;20.30;99.90
54898;DHT22;40800;52.704;6.398;2023-06-26T06:33:30;20.40;99.90
54898;DHT22;40800;52.704;6.398;2023-06-26T06:35:55;20.40;99.90
54898;DHT22;40800;52.704;6.398;2023-06-26T06:38:21;20.30;99.90
54898;DHT22;40800;52.704;6.398;2023-06-26T06:40:47;20.20;99.90
54898;DHT22;40800;52.704;6.398;2023-06-26T06:43:12;20.20;99.90
54898;DHT22;40800;52.704;6.398;2023-06-26T06:45:38;20.20;99.90
54898;DHT22;40800;52.704;6.398;2023-06-26T06:48:04;20.20;99.90
54898;DHT22;40800;52.704;6.398;2023-06-26T06:50:30;20.20;99.90
54898;DHT22;40800;52.704;6.398;2023-06-26T06:52:55;20.30;99.90
54898;DHT22;40800;52.704;6.398;2023-06-26T06:55:22;20.20;99.90
54898;DHT22;40800;52.704;6.398;2023-06-26T06:57:48;20.20;99.90
54898;DHT22;40800;52.704;6.398;2023-06-26T07:00:14;20.10;99.90
54898;DHT22;40800;52.704;6.398;2023-06-26T07:02:42;20.20;99.90
54898;DHT22;40800;52.704;6.398;2023-06-26T07:05:09;20.30;99.90
54898;DHT22;40800;52.704;6.398;2023-06-26T07:07:36;20.40;99.90
54898;DHT22;40800;52.704;6.398;2023-06-26T07:10:03;20.60;99.90
54898;DHT22;40800;52.704;6.398;2023-06-26T07:12:29;20.70;99.90
54898;DHT22;40800;52.704;6.398;2023-06-26T07:14:56;20.80;99.90
54898;DHT22;40800;52.704;6.398;2023-06-26T07:17:22;20.90;99.90
54898;DHT22;40800;52.704;6.398;2023-06-26T07:19:49;20.90;99.90
54898;DHT22;40800;52.704;6.398;2023-06-26T07:22:14;20.90;99.90
54898;DHT22;40800;52.704;6.398;2023-06-26T07:24:40;20.90;99.90
54898;DHT22;40800;52.704;6.398;2023-06-26T07:27:06;21.00;99.90
54898;DHT22;40800;52.704;6.398;2023-06-26T07:29:32;21.10;99.90
54898;DHT22;40800;52.704;6.398;2023-06-26T07:31:57;21.10;99.90
54898;DHT22;40800;52.704;6.398;2023-06-26T07:34:23;21.00;65.20
54898;DHT22;40800;52.704;6.398;2023-06-26T07:36:48;21.00;99.90
54898;DHT22;40800;52.704;6.398;2023-06-26T07:39:14;21.10;89.30
54898;DHT22;40800;52.704;6.398;2023-06-26T07:41:40;21.10;8.10
54898;DHT22;40800;52.704;6.398;2023-06-26T07:44:05;21.10;1.00
54898;DHT22;40800;52.704;6.398;2023-06-26T07:46:31;21.00;16.00
54898;DHT22;40800;52.704;6.398;2023-06-26T07:48:56;21.10;1.00
54898;DHT22;40800;52.704;6.398;2023-06-26T07:51:22;21.20;1.00
54898;DHT22;40800;52.704;6.398;2023-06-26T07:53:48;21.20;1.00
54898;DHT22;40800;52.704;6.398;2023-06-26T07:56:13;21.20;1.00
54898;DHT22;40800;52.704;6.398;2023-06-26T07:58:39;21.30;1.00
54898;DHT22;40800;52.704;6.398;2023-06-26T08:01:04;21.20;99.90
54898;DHT22;40800;52.704;6.398;2023-06-26T08:03:30;21.40;1.00
54898;DHT22;40800;52.704;6.398;2023-06-26T08:05:56;21.40;1.00
54898;DHT22;40800;52.704;6.398;2023-06-26T08:08:21;21.50;99.90
54898;DHT22;40800;52.704;6.398;2023-06-26T08:10:47;21.50;38.10
54898;DHT22;40800;52.704;6.398;2023-06-26T08:13:12;21.50;1.00
54898;DHT22;40800;52.704;6.398;2023-06-26T08:15:38;21.50;1.00
54898;DHT22;40800;52.704;6.398;2023-06-26T08:18:04;21.40;1.00
54898;DHT22;40800;52.704;6.398;2023-06-26T08:20:30;21.50;1.00
54898;DHT22;40800;52.704;6.398;2023-06-26T08:22:56;21.40;99.90
54898;DHT22;40800;52.704;6.398;2023-06-26T08:25:21;21.50;1.00
54898;DHT22;40800;52.704;6.398;2023-06-26T08:27:47;21.60;99.90
54898;DHT22;40800;52.704;6.398;2023-06-26T08:30:13;21.70;99.90
54898;DHT22;40800;52.704;6.398;2023-06-26T08:32:39;21.60;99.90
54898;DHT22;40800;52.704;6.398;2023-06-26T08:35:06;21.50;99.90
54898;DHT22;40800;52.704;6.398;2023-06-26T08:37:32;21.50;99.90
54898;DHT22;40800;52.704;6.398;2023-06-26T08:39:59;21.40;1.00
54898;DHT22;40800;52.704;6.398;2023-06-26T08:42:25;21.30;1.00
54898;DHT22;40800;52.704;6.398;2023-06-26T08:44:51;21.40;90.60
54898;DHT22;40800;52.704;6.398;2023-06-26T08:47:18;21.60;99.10
54898;DHT22;40800;52.704;6.398;2023-06-26T08:49:53;21.50;99.90
54898;DHT22;40800;52.704;6.398;2023-06-26T08:52:27;21.40;99.90
54898;DHT22;40800;52.704;6.398;2023-06-26T08:54:57;21.60;99.90
54898;DHT22;40800;52.704;6.398;2023-06-26T08:57:23;21.80;99.90
54898;DHT22;40800;52.704;6.398;2023-06-26T08:59:50;21.80;99.90
54898;DHT22;40800;52.704;6.398;2023-06-26T09:02:16;22.00;99.90
54898;DHT22;40800;52.704;6.398;2023-06-26T09:04:42;21.80;99.90
54898;DHT22;40800;52.704;6.398;2023-06-26T09:07:08;21.70;99.90
54898;DHT22;40800;52.704;6.398;2023-06-26T09:09:34;21.60;56.40
54898;DHT22;40800;52.704;6.398;2023-06-26T09:12:02;21.90;99.90
54898;DHT22;40800;52.704;6.398;2023-06-26T09:14:29;22.10;99.90
54898;DHT22;40800;52.704;6.398;2023-06-26T09:16:55;22.30;1.00
54898;DHT22;40800;52.704;6.398;2023-06-26T09:19:20;22.10;1.00
54898;DHT22;40800;52.704;6.398;2023-06-26T09:21:49;21.80;90.30
54898;DHT22;40800;52.704;6.398;2023-06-26T09:24:16;21.50;99.90
54898;DHT22;40800;52.704;6.398;2023-06-26T09:26:42;21.60;29.40
54898;DHT22;40800;52.704;6.398;2023-06-26T09:29:09;21.80;1.00
54898;DHT22;40800;52.704;6.398;2023-06-26T09:31:36;22.20;99.90
54898;DHT22;40800;52.704;6.398;2023-06-26T09:34:03;22.30;1.00
54898;DHT22;40800;52.704;6.398;2023-06-26T09:36:29;22.40;99.90
54898;DHT22;40800;52.704;6.398;2023-06-26T09:39:02;22.30;99.90
54898;DHT22;40800;52.704;6.398;2023-06-26T09:41:30;22.40;99.90
54898;DHT22;40800;52.704;6.398;2023-06-26T09:43:58;22.20;1.00
54898;DHT22;40800;52.704;6.398;2023-06-26T09:46:29;22.30;1.00
54898;DHT22;40800;52.704;6.398;2023-06-26T09:49:01;22.70;1.00
54898;DHT22;40800;52.704;6.398;2023-06-26T09:51:36;22.80;99.90
54898;DHT22;40800;52.704;6.398;2023-06-26T09:54:02;22.60;99.90
54898;DHT22;40800;52.704;6.398;2023-06-26T09:56:29;22.10;1.00
54898;DHT22;40800;52.704;6.398;2023-06-26T09:58:55;21.90;99.90
54898;DHT22;40800;52.704;6.398;2023-06-26T10:01:23;22.00;99.90
54898;DHT22;40800;52.704;6.398;2023-06-26T10:03:49;22.20;99.90
54898;DHT22;40800;52.704;6.398;2023-06-26T10:06:18;22.40;99.90
54898;DHT22;40800;52.704;6.398;2023-06-26T10:08:45;22.60;99.90
54898;DHT22;40800;52.704;6.398;2023-06-26T10:11:14;22.70;88.60
54898;DHT22;40800;52.704;6.398;2023-06-26T10:13:42;22.60;99.90
54898;DHT22;40800;52.704;6.398;2023-06-26T10:16:12;22.40;1.00
54898;DHT22;40800;52.704;6.398;2023-06-26T10:18:39;22.40;99.90
54898;DHT22;40800;52.704;6.398;2023-06-26T10:21:06;22.80;80.30
54898;DHT22;40800;52.704;6.398;2023-06-26T10:23:35;22.70;99.90
54898;DHT22;40800;52.704;6.398;2023-06-26T10:26:02;22.60;99.90
54898;DHT22;40800;52.704;6.398;2023-06-26T10:28:32;22.70;99.90
54898;DHT22;40800;52.704;6.398;2023-06-26T10:31:00;22.90;99.90
54898;DHT22;40800;52.704;6.398;2023-06-26T10:33:26;22.80;1.00
54898;DHT22;40800;52.704;6.398;2023-06-26T10:35:52;22.30;18.80
54898;DHT22;40800;52.704;6.398;2023-06-26T10:38:18;22.20;1.00
54898;DHT22;40800;52.704;6.398;2023-06-26T10:40:47;22.10;99.90
54898;DHT22;40800;52.704;6.398;2023-06-26T10:43:18;22.20;90.90
54898;DHT22;40800;52.704;6.398;2023-06-26T10:45:49;22.60;99.90
54898;DHT22;40800;52.704;6.398;2023-06-26T10:48:20;23.00;99.90
54898;DHT22;40800;52.704;6.398;2023-06-26T10:50:48;23.10;78.30
54898;DHT22;40800;52.704;6.398;2023-06-26T10:56:02;22.60;1.00
54898;DHT22;40800;52.704;6.398;2023-06-26T10:58:50;22.60;95.80
54898;DHT22;40800;52.704;6.398;2023-06-26T11:01:22;22.40;1.00
54898;DHT22;40800;52.704;6.398;2023-06-26T11:04:04;22.50;99.90
54898;DHT22;40800;52.704;6.398;2023-06-26T11:06:31;22.70;99.90
54898;DHT22;40800;52.704;6.398;2023-06-26T11:09:01;22.70;91.40
54898;DHT22;40800;52.704;6.398;2023-06-26T11:14:26;22.00;1.00
54898;DHT22;40800;52.704;6.398;2023-06-26T11:16:52;22.20;99.90
54898;DHT22;40800;52.704;6.398;2023-06-26T11:19:20;22.70;99.90
54898;DHT22;40800;52.704;6.398;2023-06-26T11:21:46;23.00;1.00
54898;DHT22;40800;52.704;6.398;2023-06-26T11:24:13;23.10;1.00
54898;DHT22;40800;52.704;6.398;2023-06-26T11:26:39;23.40;99.90
54898;DHT22;40800;52.704;6.398;2023-06-26T11:29:05;23.30;99.90
54898;DHT22;40800;52.704;6.398;2023-06-26T11:31:33;22.80;99.90
54898;DHT22;40800;52.704;6.398;2023-06-26T11:34:00;22.60;99.90
54898;DHT22;40800;52.704;6.398;2023-06-26T11:36:27;22.90;99.90
54898;DHT22;40800;52.704;6.398;2023-06-26T11:38:54;22.90;99.90
54898;DHT22;40800;52.704;6.398;2023-06-26T11:41:20;22.80;99.90
54898;DHT22;40800;52.704;6.398;2023-06-26T11:43:45;22.70;60.50
54898;DHT22;40800;52.704;6.398;2023-06-26T11:46:11;22.80;8.80
54898;DHT22;40800;52.704;6.398;2023-06-26T11:48:37;23.00;99.90
54898;DHT22;40800;52.704;6.398;2023-06-26T11:51:06;23.20;99.90
54898;DHT22;40800;52.704;6.398;2023-06-26T11:53:39;23.40;99.90
54898;DHT22;40800;52.704;6.398;2023-06-26T11:56:13;23.30;99.90
54898;DHT22;40800;52.704;6.398;2023-06-26T11:59:07;22.70;1.00
54898;DHT22;40800;52.704;6.398;2023-06-26T12:01:44;22.50;99.90
54898;DHT22;40800;52.704;6.398;2023-06-26T12:04:15;22.30;99.90
54898;DHT22;40800;52.704;6.398;2023-06-26T12:06:45;22.20;95.30
54898;DHT22;40800;52.704;6.398;2023-06-26T12:09:12;22.40;99.90
54898;DHT22;40800;52.704;6.398;2023-06-26T12:11:41;22.50;99.90
54898;DHT22;40800;52.704;6.398;2023-06-26T12:14:08;22.30;76.10
54898;DHT22;40800;52.704;6.398;2023-06-26T12:16:34;22.30;99.90
54898;DHT22;40800;52.704;6.398;2023-06-26T12:19:01;22.10;99.90
54898;DHT22;40800;52.704;6.398;2023-06-26T12:24:12;22.60;78.50
54898;DHT22;40800;52.704;6.398;2023-06-26T12:26:38;22.70;99.90
54898;DHT22;40800;52.704;6.398;2023-06-26T12:29:07;22.90;91.30
54898;DHT22;40800;52.704;6.398;2023-06-26T12:31:34;23.10;1.00
54898;DHT22;40800;52.704;6.398;2023-06-26T12:34:00;23.20;58.90
54898;DHT22;40800;52.704;6.398;2023-06-26T12:36:26;23.20;99.90
54898;DHT22;40800;52.704;6.398;2023-06-26T12:38:53;22.90;1.00
54898;DHT22;40800;52.704;6.398;2023-06-26T12:41:19;23.00;73.20
54898;DHT22;40800;52.704;6.398;2023-06-26T12:43:46;23.10;99.90
54898;DHT22;40800;52.704;6.398;2023-06-26T12:46:11;23.40;99.90
54898;DHT22;40800;52.704;6.398;2023-06-26T12:48:39;23.50;97.90
54898;DHT22;40800;52.704;6.398;2023-06-26T12:51:15;23.90;1.00
54898;DHT22;40800;52.704;6.398;2023-06-26T12:53:41;24.00;1.00
54898;DHT22;40800;52.704;6.398;2023-06-26T12:56:10;23.60;1.00
54898;DHT22;40800;52.704;6.398;2023-06-26T12:58:37;23.30;1.00
54898;DHT22;40800;52.704;6.398;2023-06-26T13:01:04;23.10;1.00
54898;DHT22;40800;52.704;6.398;2023-06-26T13:03:29;22.70;1.00
54898;DHT22;40800;52.704;6.398;2023-06-26T13:05:55;22.80;1.00
54898;DHT22;40800;52.704;6.398;2023-06-26T13:08:21;22.80;1.00
54898;DHT22;40800;52.704;6.398;2023-06-26T13:10:46;22.60;1.00
54898;DHT22;40800;52.704;6.398;2023-06-26T13:13:12;22.60;1.00
54898;DHT22;40800;52.704;6.398;2023-06-26T13:15:38;22.80;1.00
54898;DHT22;40800;52.704;6.398;2023-06-26T13:18:03;22.90;1.00
54898;DHT22;40800;52.704;6.398;2023-06-26T13:20:29;23.20;1.00
54898;DHT22;40800;52.704;6.398;2023-06-26T13:22:55;23.30;99.90
54898;DHT22;40800;52.704;6.398;2023-06-26T13:25:21;23.30;1.00
54898;DHT22;40800;52.704;6.398;2023-06-26T13:27:47;23.20;1.00
54898;DHT22;40800;52.704;6.398;2023-06-26T13:30:14;23.00;1.00
54898;DHT22;40800;52.704;6.398;2023-06-26T13:32:39;22.80;1.00
54898;DHT22;40800;52.704;6.398;2023-06-26T13:35:05;22.70;1.00
54898;DHT22;40800;52.704;6.398;2023-06-26T13:37:31;22.60;99.90
54898;DHT22;40800;52.704;6.398;2023-06-26T13:39:57;22.50;1.00
54898;DHT22;40800;52.704;6.398;2023-06-26T13:42:24;22.40;1.00
54898;DHT22;40800;52.704;6.398;2023-06-26T13:44:50;22.50;71.40
54898;DHT22;40800;52.704;6.398;2023-06-26T13:47:16;22.60;97.60
54898;DHT22;40800;52.704;6.398;2023-06-26T13:49:41;22.60;5.60
54898;DHT22;40800;52.704;6.398;2023-06-26T13:52:07;22.70;1.00
54898;DHT22;40800;52.704;6.398;2023-06-26T13:54:37;22.60;1.00
54898;DHT22;40800;52.704;6.398;2023-06-26T13:57:08;22.60;1.00
54898;DHT22;40800;52.704;6.398;2023-06-26T13:59:36;22.80;1.00
54898;DHT22;40800;52.704;6.398;2023-06-26T14:02:01;22.90;1.00
54898;DHT22;40800;52.704;6.398;2023-06-26T14:04:27;23.10;1.00
54898;DHT22;40800;52.704;6.398;2023-06-26T14:06:53;23.40;1.00
54898;DHT22;40800;52.704;6.398;2023-06-26T14:09:18;23.10;1.00
54898;DHT22;40800;52.704;6.398;2023-06-26T14:11:44;22.70;1.00
54898;DHT22;40800;52.704;6.398;2023-06-26T14:14:10;22.20;91.80
54898;DHT22;40800;52.704;6.398;2023-06-26T14:16:35;22.60;94.40
54898;DHT22;40800;52.704;6.398;2023-06-26T14:19:01;23.30;1.00
54898;DHT22;40800;52.704;6.398;2023-06-26T14:21:27;23.60;99.90
54898;DHT22;40800;52.704;6.398;2023-06-26T14:23:54;23.30;1.00
54898;DHT22;40800;52.704;6.398;2023-06-26T14:26:20;23.00;99.90
54898;DHT22;40800;52.704;6.398;2023-06-26T14:28:45;22.50;99.90
54898;DHT22;40800;52.704;6.398;2023-06-26T14:31:12;22.10;1.00
54898;DHT22;40800;52.704;6.398;2023-06-26T14:33:37;22.00;1.00
54898;DHT22;40800;52.704;6.398;2023-06-26T14:36:03;21.90;1.00
54898;DHT22;40800;52.704;6.398;2023-06-26T14:38:28;21.90;1.00
54898;DHT22;40800;52.704;6.398;2023-06-26T14:40:54;22.20;1.00
54898;DHT22;40800;52.704;6.398;2023-06-26T14:43:20;22.40;99.90
54898;DHT22;40800;52.704;6.398;2023-06-26T14:45:46;22.50;1.00
54898;DHT22;40800;52.704;6.398;2023-06-26T14:48:11;23.10;99.90
54898;DHT22;40800;52.704;6.398;2023-06-26T14:50:37;23.20;99.90
54898;DHT22;40800;52.704;6.398;2023-06-26T14:53:03;23.40;99.90
54898;DHT22;40800;52.704;6.398;2023-06-26T14:55:28;23.40;99.90
54898;DHT22;40800;52.704;6.398;2023-06-26T14:57:54;23.20;99.90
54898;DHT22;40800;52.704;6.398;2023-06-26T15:00:20;22.80;99.90
54898;DHT22;40800;52.704;6.398;2023-06-26T15:02:45;23.10;99.90
54898;DHT22;40800;52.704;6.398;2023-06-26T15:05:11;22.90;99.90
54898;DHT22;40800;52.704;6.398;2023-06-26T15:07:37;23.10;99.90
54898;DHT22;40800;52.704;6.398;2023-06-26T15:10:02;23.40;99.90
54898;DHT22;40800;52.704;6.398;2023-06-26T15:12:28;23.40;99.90
54898;DHT22;40800;52.704;6.398;2023-06-26T15:14:54;23.30;99.90
54898;DHT22;40800;52.704;6.398;2023-06-26T15:17:19;23.20;99.90
54898;DHT22;40800;52.704;6.398;2023-06-26T15:19:45;23.00;99.90
54898;DHT22;40800;52.704;6.398;2023-06-26T15:22:10;22.90;99.90
54898;DHT22;40800;52.704;6.398;2023-06-26T15:24:36;22.80;99.90
54898;DHT22;40800;52.704;6.398;2023-06-26T15:27:02;22.80;1.00
54898;DHT22;40800;52.704;6.398;2023-06-26T15:29:28;22.50;99.90
54898;DHT22;40800;52.704;6.398;2023-06-26T15:31:53;22.00;99.90
54898;DHT22;40800;52.704;6.398;2023-06-26T15:34:19;22.20;99.90
54898;DHT22;40800;52.704;6.398;2023-06-26T15:36:45;22.10;99.90
54898;DHT22;40800;52.704;6.398;2023-06-26T15:39:10;22.00;99.90
54898;DHT22;40800;52.704;6.398;2023-06-26T15:41:36;21.90;99.90
54898;DHT22;40800;52.704;6.398;2023-06-26T15:44:03;22.00;99.90
54898;DHT22;40800;52.704;6.398;2023-06-26T15:46:29;22.50;99.90
54898;DHT22;40800;52.704;6.398;2023-06-26T15:48:55;22.70;99.90
54898;DHT22;40800;52.704;6.398;2023-06-26T15:51:21;22.50;99.90